Time;durP1;ratioP1;P1;durP2;ratioP2;P2;SDS_P1;SDS_P2;PMS_P1;PMS_P2;Temp;Humidity;BMP_temperature;BMP_pressure;BME280_temperature;BME280_humidity;BME280_pressure;Samples;Min_cycle;Max_cycle;Signal;HPM_P1;HPM_P2
2023/10/07 07:26:21;;;;;;;14.47;9.27;;;16.30;96.60;;;;;;5131032;27;20904;-71
2023/10/07 07:28:48;;;;;;;13.70;7.87;;;17.10;93.90;;;;;;5130880;28;20438;-71
2023/10/07 07:31:26;;;;;;;15.37;8.43;;;17.00;93.80;;;;;;5130672;28;20451;-71
2023/10/07 07:34:05;;;;;;;14.00;8.70;;;17.10;93.80;;;;;;5130468;27;20451;-71
2023/10/07 07:36:39;;;;;;;15.10;7.90;;;17.00;93.70;;;;;;5130580;27;20801;-72
2023/10/07 07:39:09;;;;;;;20.10;16.23;;;16.90;93.80;;;;;;5128384;28;20453;-71
2023/10/07 07:41:55;;;;;;;14.10;11.20;;;17.00;93.90;;;;;;5131108;28;20216;-72
2023/10/07 07:44:32;;;;;;;18.30;15.95;;;17.00;93.80;;;;;;5130596;28;20550;-72
2023/10/07 07:47:00;;;;;;;15.43;12.00;;;17.00;93.80;;;;;;5130802;28;20194;-71
2023/10/07 07:49:28;;;;;;;16.40;8.83;;;17.00;93.80;;;;;;5130080;28;20526;-72
2023/10/07 07:51:55;;;;;;;20.87;9.33;;;17.00;94.20;;;;;;5130254;28;20817;-71
2023/10/07 07:54:24;;;;;;;17.60;7.67;;;16.90;93.80;;;;;;5129989;27;20431;-72
2023/10/07 07:56:54;;;;;;;18.93;8.60;;;16.90;93.80;;;;;;5129572;28;20448;-72
2023/10/07 07:59:21;;;;;;;14.47;9.40;;;16.90;93.80;;;;;;5129704;28;20444;-72
2023/10/07 08:01:53;;;;;;;11.30;10.10;;;16.90;93.80;;;;;;5129656;28;20558;-71
2023/10/07 08:04:37;;;;;;;14.77;9.20;;;16.90;93.80;;;;;;5129014;28;20966;-71
2023/10/07 08:07:06;;;;;;;15.07;9.87;;;16.90;93.80;;;;;;5128535;28;20455;-71
2023/10/07 08:09:36;;;;;;;18.07;10.50;;;16.80;93.80;;;;;;5129530;28;20532;-71
2023/10/07 08:12:09;;;;;;;15.83;11.00;;;16.80;93.80;;;;;;5129311;28;20961;-71
2023/10/07 08:14:37;;;;;;;12.73;11.07;;;16.80;93.80;;;;;;5128694;27;20447;-72
2023/10/07 08:17:08;;;;;;;14.77;13.40;;;16.70;93.70;;;;;;5129450;28;20454;-71
2023/10/07 08:19:35;;;;;;;14.10;12.70;;;16.70;93.70;;;;;;5129977;27;20451;-71
2023/10/07 08:22:05;;;;;;;15.40;13.07;;;16.80;93.80;;;;;;5129350;27;20513;-71
2023/10/07 08:24:39;;;;;;;14.23;12.77;;;16.90;93.80;;;;;;5129127;28;20475;-72
2023/10/07 08:27:43;;;;;;;10.53;9.53;;;17.20;93.90;;;;;;5115681;27;20870;-69
2023/10/07 08:29:57;;;;;;;14.70;9.83;;;17.60;90.40;;;;;;5115318;28;20461;-69
2023/10/07 08:32:35;;;;;;;12.17;7.60;;;17.80;90.80;;;;;;5115670;28;20584;-70
2023/10/07 08:35:09;;;;;;;12.57;5.80;;;18.20;90.50;;;;;;5115403;28;20556;-69
2023/10/07 08:37:37;;;;;;;19.47;6.00;;;18.60;84.80;;;;;;5115478;28;20487;-69
2023/10/07 08:40:13;;;;;;;10.60;4.27;;;18.90;85.10;;;;;;5115522;27;20640;-70
2023/10/07 08:42:45;;;;;;;12.93;5.50;;;19.00;83.40;;;;;;5115503;28;20448;-69
2023/10/07 08:45:16;;;;;;;10.87;5.40;;;19.10;83.90;;;;;;5115470;28;20468;-69
2023/10/07 08:47:49;;;;;;;9.70;4.47;;;19.10;77.40;;;;;;5115102;28;20444;-70
2023/10/07 08:50:19;;;;;;;9.97;4.80;;;19.10;78.20;;;;;;5115519;28;20440;-69
2023/10/07 08:52:47;;;;;;;10.00;5.00;;;19.20;77.40;;;;;;5115556;28;20483;-69
2023/10/07 08:55:14;;;;;;;14.00;5.33;;;19.30;79.30;;;;;;5115079;28;20451;-69
2023/10/07 08:57:46;;;;;;;11.43;4.37;;;19.10;77.30;;;;;;5114728;28;20505;-70
2023/10/07 09:00:21;;;;;;;13.97;6.53;;;19.20;77.40;;;;;;5115432;27;20505;-70
2023/10/07 09:02:52;;;;;;;14.60;5.37;;;19.30;77.50;;;;;;5114057;27;20446;-70
2023/10/07 09:05:20;;;;;;;11.53;4.80;;;19.20;77.40;;;;;;5114396;28;20475;-70
2023/10/07 09:07:49;;;;;;;7.73;4.10;;;19.00;77.20;;;;;;5114198;27;20444;-69
2023/10/07 09:10:17;;;;;;;11.13;5.10;;;18.80;77.10;;;;;;5114619;28;20939;-69
2023/10/07 09:12:49;;;;;;;11.00;4.40;;;18.90;77.20;;;;;;5113927;27;20543;-69
2023/10/07 09:15:25;;;;;;;8.80;4.97;;;18.80;77.10;;;;;;5114751;28;20451;-69
2023/10/07 09:17:52;;;;;;;12.03;4.93;;;19.00;77.30;;;;;;5114356;28;20455;-69
2023/10/07 09:20:29;;;;;;;10.53;5.80;;;19.10;77.30;;;;;;5114807;28;20449;-69
2023/10/07 09:23:06;;;;;;;9.53;4.80;;;19.60;75.00;;;;;;5114036;28;20448;-69
2023/10/07 09:25:33;;;;;;;12.30;5.07;;;20.10;76.10;;;;;;5113822;28;20476;-69
2023/10/07 09:28:07;;;;;;;13.33;5.43;;;20.20;70.30;;;;;;5114434;28;20944;-70
2023/10/07 09:30:38;;;;;;;14.60;5.80;;;20.60;70.60;;;;;;5113859;28;20535;-73
2023/10/07 09:33:12;;;;;;;10.13;4.23;;;21.00;70.90;;;;;;5112018;28;20449;-73
2023/10/07 09:35:42;;;;;;;12.67;4.70;;;21.40;63.20;;;;;;5114339;28;20946;-72
2023/10/07 09:38:12;;;;;;;13.03;5.37;;;21.70;61.60;;;;;;5113557;28;20824;-73
2023/10/07 09:43:27;;;;;;;11.83;5.07;;;21.60;55.00;;;;;;5112039;28;20435;-72
2023/10/07 09:45:53;;;;;;;10.30;4.77;;;21.60;54.70;;;;;;5114596;28;20512;-72
2023/10/07 09:48:23;;;;;;;12.35;4.90;;;21.90;55.00;;;;;;5113591;28;20450;-72
2023/10/07 09:50:55;;;;;;;10.50;4.43;;;21.80;54.90;;;;;;5114342;28;20247;-70
2023/10/07 09:53:37;;;;;;;8.27;3.50;;;21.70;54.80;;;;;;5113242;28;20452;-68
2023/10/07 09:56:29;;;;;;;11.50;4.70;;;21.80;54.90;;;;;;5105101;28;20445;-72
2023/10/07 09:59:15;;;;;;;11.20;4.30;;;22.20;52.80;;;;;;5113893;28;20451;-72
2023/10/07 10:02:05;;;;;;;13.47;5.90;;;22.20;52.10;;;;;;5111131;28;20801;-72
2023/10/07 10:04:47;;;;;;;11.47;5.47;;;22.50;52.80;;;;;;5100536;28;20971;-73
2023/10/07 10:07:44;;;;;;;11.07;4.60;;;22.30;46.50;;;;;;5113687;28;20448;-73
2023/10/07 10:10:14;;;;;;;9.87;3.70;;;22.40;46.60;;;;;;5113445;28;20445;-72
2023/10/07 10:12:56;;;;;;;13.15;5.55;;;22.40;46.60;;;;;;5111968;28;20451;-72
2023/10/07 10:15:52;;;;;;;9.47;5.07;;;22.70;46.90;;;;;;5113289;28;20198;-72
2023/10/07 10:18:35;;;;;;;10.97;4.40;;;22.70;46.90;;;;;;5112766;28;20444;-72
2023/10/07 10:21:05;;;;;;;15.03;5.20;;;23.10;46.50;;;;;;5113172;28;20458;-72
2023/10/07 10:23:34;;;;;;;10.70;4.27;;;23.10;41.40;;;;;;5112492;28;20848;-72
2023/10/07 10:26:13;;;;;;;7.30;3.70;;;23.30;38.40;;;;;;5113066;28;20482;-71
2023/10/07 10:28:41;;;;;;;10.97;4.40;;;23.40;38.50;;;;;;5113051;28;20445;-72
2023/10/07 10:31:19;;;;;;;12.27;4.50;;;23.50;38.60;;;;;;5113308;28;20817;-72
2023/10/07 10:33:49;;;;;;;9.40;4.20;;;23.90;38.90;;;;;;5112761;28;20593;-72
2023/10/07 10:36:21;;;;;;;10.77;4.87;;;23.90;34.90;;;;;;5113118;28;20440;-72
2023/10/07 10:38:48;;;;;;;10.77;5.47;;;23.80;36.20;;;;;;5112309;28;21007;-72
2023/10/07 10:41:27;;;;;;;11.60;5.20;;;24.00;30.30;;;;;;5112503;28;20452;-72
2023/10/07 10:44:04;;;;;;;10.30;4.00;;;23.70;29.70;;;;;;5113041;28;20480;-72
2023/10/07 10:46:46;;;;;;;10.23;3.80;;;23.80;32.00;;;;;;5112858;28;20516;-72
2023/10/07 10:49:14;;;;;;;9.20;3.90;;;23.40;29.50;;;;;;5112933;28;21005;-72
2023/10/07 10:51:48;;;;;;;9.27;4.00;;;24.00;31.80;;;;;;5112808;28;20449;-72
2023/10/07 10:54:19;;;;;;;12.77;4.23;;;24.20;30.00;;;;;;5112916;28;21008;-72
2023/10/07 10:56:49;;;;;;;11.47;3.43;;;24.20;30.00;;;;;;5112910;28;20451;-72
2023/10/07 10:59:17;;;;;;;13.00;3.87;;;23.70;29.70;;;;;;5113008;28;20455;-72
2023/10/07 11:01:49;;;;;;;9.87;3.73;;;23.90;29.80;;;;;;5112612;28;20449;-72
2023/10/07 11:04:19;;;;;;;8.63;3.37;;;24.20;30.00;;;;;;5112738;28;20447;-72
2023/10/07 11:06:50;;;;;;;12.07;3.67;;;24.20;28.30;;;;;;5112690;28;20497;-72
2023/10/07 11:09:25;;;;;;;7.73;3.50;;;24.30;30.00;;;;;;5112606;28;20444;-72
2023/10/07 11:11:54;;;;;;;11.33;4.20;;;24.50;26.70;;;;;;5112648;28;20469;-72
2023/10/07 11:14:23;;;;;;;7.40;3.20;;;24.50;23.00;;;;;;5112888;28;20468;-72
2023/10/07 11:16:57;;;;;;;11.60;4.10;;;25.20;23.40;;;;;;5112881;28;20444;-72
2023/10/07 11:19:25;;;;;;;12.30;3.40;;;25.10;23.30;;;;;;5112201;28;20480;-72
2023/10/07 11:21:54;;;;;;;8.40;3.23;;;25.20;19.60;;;;;;5112213;28;20455;-73
2023/10/07 11:24:25;;;;;;;8.97;3.40;;;24.70;21.20;;;;;;5111829;28;20485;-73
2023/10/07 11:26:56;;;;;;;8.20;3.97;;;25.10;15.80;;;;;;5112471;28;20907;-72
2023/10/07 11:29:29;;;;;;;9.50;3.47;;;24.80;15.60;;;;;;5112491;28;21129;-72
2023/10/07 11:32:01;;;;;;;7.10;3.37;;;24.80;15.70;;;;;;5112294;28;20455;-72
2023/10/07 11:34:34;;;;;;;11.50;3.27;;;25.00;15.80;;;;;;5112083;28;20448;-72
2023/10/07 11:37:13;;;;;;;8.80;3.90;;;24.50;15.50;;;;;;5112256;28;20532;-72
2023/10/07 11:39:45;;;;;;;10.23;3.57;;;23.80;15.70;;;;;;5111830;28;20452;-72
2023/10/07 11:42:14;;;;;;;9.35;3.50;;;24.30;15.30;;;;;;5111966;28;20450;-72
2023/10/07 11:44:42;;;;;;;8.97;3.63;;;24.60;15.50;;;;;;5112119;28;20199;-72
2023/10/07 11:47:12;;;;;;;8.90;4.00;;;24.80;15.70;;;;;;5112431;28;20448;-72
2023/10/07 11:49:39;;;;;;;8.90;4.00;;;25.10;15.80;;;;;;5112186;28;20419;-72
2023/10/07 11:52:06;;;;;;;13.90;4.63;;;25.40;16.00;;;;;;5112679;28;20908;-72
2023/10/07 11:54:35;;;;;;;9.90;4.50;;;25.70;16.20;;;;;;5112315;28;20565;-72
2023/10/07 11:57:05;;;;;;;10.60;4.40;;;25.60;16.10;;;;;;5111968;28;20855;-72
2023/10/07 11:59:33;;;;;;;10.17;3.90;;;25.60;16.10;;;;;;5112132;28;20451;-72
2023/10/07 12:02:00;;;;;;;9.70;3.60;;;25.40;16.00;;;;;;5114975;28;20448;-72
2023/10/07 12:04:29;;;;;;;8.43;3.30;;;25.30;15.20;;;;;;5115770;28;20985;-72
2023/10/07 12:06:56;;;;;;;12.33;4.00;;;25.50;16.10;;;;;;5115991;28;20870;-72
2023/10/07 12:09:24;;;;;;;11.90;4.73;;;25.40;16.00;;;;;;5116569;28;20527;-73
2023/10/07 12:11:53;;;;;;;10.40;3.63;;;25.30;15.90;;;;;;5115584;28;20527;-74
2023/10/07 12:14:22;;;;;;;12.40;3.87;;;25.40;16.00;;;;;;5115341;28;20448;-73
2023/10/07 12:16:49;;;;;;;7.90;3.20;;;26.20;13.20;;;;;;5115334;28;20939;-73
2023/10/07 12:19:17;;;;;;;9.23;3.50;;;26.60;9.00;;;;;;5115527;28;20814;-73
2023/10/07 12:21:49;;;;;;;11.93;4.47;;;27.10;9.30;;;;;;5115196;28;20529;-73
2023/10/07 12:24:17;;;;;;;10.97;3.73;;;27.20;10.00;;;;;;5114780;28;20203;-74
2023/10/07 12:26:47;;;;;;;9.53;4.30;;;26.70;7.10;;;;;;5114932;28;20483;-74
2023/10/07 12:29:15;;;;;;;8.73;3.77;;;27.50;9.50;;;;;;5116129;28;20794;-73
2023/10/07 12:31:44;;;;;;;12.20;3.90;;;27.90;9.30;;;;;;5114783;28;20453;-73
2023/10/07 12:34:11;;;;;;;11.90;4.25;;;27.60;1.70;;;;;;5114087;28;20530;-73
2023/10/07 12:36:39;;;;;;;11.37;3.27;;;26.70;1.20;;;;;;5116093;28;20190;-74
2023/10/07 12:39:11;;;;;;;8.10;3.80;;;26.50;1.10;;;;;;5115077;27;20830;-73
2023/10/07 12:41:41;;;;;;;7.17;3.10;;;26.10;3.70;;;;;;5115815;28;20514;-73
2023/10/07 12:44:11;;;;;;;8.50;3.60;;;25.70;4.60;;;;;;5115114;28;20453;-74
2023/10/07 12:46:39;;;;;;;8.07;3.10;;;25.50;8.40;;;;;;5115169;28;20468;-74
2023/10/07 12:49:10;;;;;;;14.23;3.87;;;25.80;4.70;;;;;;5114616;28;20452;-74
2023/10/07 12:51:38;;;;;;;8.20;3.67;;;25.80;4.90;;;;;;5115477;28;20984;-75
2023/10/07 12:54:08;;;;;;;12.20;3.93;;;25.10;6.70;;;;;;5115309;28;20601;-75
2023/10/07 12:56:37;;;;;;;9.07;3.87;;;25.20;7.30;;;;;;5115678;28;20444;-75
2023/10/07 12:59:08;;;;;;;9.10;4.30;;;25.00;8.20;;;;;;5114857;28;20453;-74
2023/10/07 13:01:36;;;;;;;9.47;3.57;;;25.10;8.20;;;;;;5115280;28;20852;-75
2023/10/07 13:04:02;;;;;;;8.37;3.80;;;25.60;8.50;;;;;;5114114;28;20832;-74
2023/10/07 13:06:30;;;;;;;8.00;2.97;;;25.90;5.80;;;;;;5114585;28;20472;-74
2023/10/07 13:09:02;;;;;;;9.50;3.70;;;25.10;4.30;;;;;;5114481;28;20877;-74
2023/10/07 13:11:31;;;;;;;11.40;3.43;;;25.10;8.10;;;;;;5114856;28;20453;-75
2023/10/07 13:13:58;;;;;;;11.17;3.60;;;24.60;7.90;;;;;;5114106;28;20951;-74
2023/10/07 13:16:25;;;;;;;10.53;4.07;;;24.30;7.70;;;;;;5114553;28;20489;-74
2023/10/07 13:18:52;;;;;;;11.30;3.57;;;24.10;14.10;;;;;;5114945;28;20528;-74
2023/10/07 13:21:24;;;;;;;10.70;4.20;;;24.00;9.50;;;;;;5114697;28;20477;-74
2023/10/07 13:23:51;;;;;;;11.57;3.97;;;23.80;14.90;;;;;;5114503;27;20565;-74
2023/10/07 13:26:20;;;;;;;6.70;3.07;;;23.70;14.90;;;;;;5114535;28;20508;-74
2023/10/07 13:28:49;;;;;;;9.37;4.00;;;23.60;14.80;;;;;;5114434;27;20864;-74
2023/10/07 13:31:17;;;;;;;9.53;3.43;;;23.40;14.70;;;;;;5113449;27;20449;-74
2023/10/07 13:33:45;;;;;;;10.20;3.70;;;23.30;15.30;;;;;;5113963;28;20444;-74
2023/10/07 13:36:13;;;;;;;11.57;3.57;;;23.20;16.80;;;;;;5114057;28;20447;-74
2023/10/07 13:38:40;;;;;;;8.90;3.90;;;23.30;20.60;;;;;;5113727;28;20449;-75
2023/10/07 13:41:07;;;;;;;10.47;3.50;;;23.20;16.40;;;;;;5113585;28;20440;-74
2023/10/07 13:43:34;;;;;;;8.90;3.60;;;23.00;17.00;;;;;;5114469;27;20479;-74
2023/10/07 13:46:11;;;;;;;9.50;3.83;;;23.00;19.90;;;;;;5114480;28;20478;-75
2023/10/07 13:48:38;;;;;;;10.40;3.90;;;22.90;21.80;;;;;;5114467;28;20448;-74
2023/10/07 13:51:05;;;;;;;9.60;3.73;;;22.80;21.70;;;;;;5114259;28;20449;-74
2023/10/07 13:53:51;;;;;;;8.77;4.60;;;22.80;21.70;;;;;;5113735;28;20449;-75
2023/10/07 13:56:32;;;;;;;11.90;3.70;;;22.70;22.30;;;;;;5113834;28;20486;-74
2023/10/07 13:59:03;;;;;;;19.80;4.30;;;22.60;16.70;;;;;;5110589;28;20452;-74
2023/10/07 14:01:32;;;;;;;10.37;4.20;;;22.70;17.60;;;;;;5113090;28;20476;-74
2023/10/07 14:03:59;;;;;;;9.17;3.93;;;22.60;17.30;;;;;;5113690;28;20527;-75
2023/10/07 14:06:27;;;;;;;9.33;3.80;;;22.50;18.30;;;;;;5097709;28;20497;-74
2023/10/07 14:08:55;;;;;;;11.47;3.57;;;22.50;21.50;;;;;;5112982;28;20750;-74
2023/10/07 14:11:22;;;;;;;11.80;3.90;;;22.50;21.50;;;;;;5113482;28;20512;-74
2023/10/07 14:13:49;;;;;;;13.03;4.10;;;22.40;21.40;;;;;;5113285;28;20480;-74
2023/10/07 14:16:17;;;;;;;10.33;4.57;;;22.50;21.50;;;;;;5112810;28;20444;-74
2023/10/07 14:18:46;;;;;;;10.40;4.70;;;22.50;21.50;;;;;;5113098;28;20497;-75
2023/10/07 14:21:13;;;;;;;10.60;3.83;;;22.70;21.60;;;;;;5112921;28;20449;-74
2023/10/07 14:23:40;;;;;;;12.37;4.70;;;22.80;20.40;;;;;;5112877;28;20543;-74
2023/10/07 14:26:12;;;;;;;9.70;3.87;;;22.90;19.30;;;;;;5112923;28;20468;-72
2023/10/07 14:28:40;;;;;;;10.60;4.20;;;23.00;14.40;;;;;;5112161;28;20509;-71
2023/10/07 14:31:09;;;;;;;13.13;4.87;;;22.90;17.30;;;;;;5111709;28;20795;-72
2023/10/07 14:33:36;;;;;;;11.00;4.50;;;22.90;17.20;;;;;;5112567;28;20452;-72
2023/10/07 14:36:09;;;;;;;12.63;3.87;;;22.80;17.90;;;;;;5113063;28;20483;-72
2023/10/07 14:38:36;;;;;;;10.67;4.37;;;22.90;18.70;;;;;;5112448;28;20466;-72
2023/10/07 14:41:07;;;;;;;10.47;4.13;;;22.90;18.20;;;;;;5112191;28;20444;-72
2023/10/07 14:43:35;;;;;;;9.97;3.97;;;22.90;16.90;;;;;;5110679;28;20459;-72
2023/10/07 14:46:04;;;;;;;9.20;4.03;;;22.80;14.20;;;;;;5112444;28;21013;-72
2023/10/07 14:48:32;;;;;;;11.43;4.47;;;22.90;15.20;;;;;;5112562;28;20850;-72
2023/10/07 14:51:06;;;;;;;12.40;4.93;;;23.00;17.20;;;;;;5111779;28;20459;-72
2023/10/07 14:53:33;;;;;;;11.47;4.90;;;23.40;14.70;;;;;;5112415;28;20455;-72
2023/10/07 14:56:02;;;;;;;9.57;4.13;;;23.80;15.00;;;;;;5112461;28;20539;-72
2023/10/07 14:58:30;;;;;;;9.80;4.00;;;24.20;15.20;;;;;;5112249;28;20452;-72
2023/10/07 15:00:57;;;;;;;9.77;3.87;;;24.60;10.00;;;;;;5112092;28;20449;-72
2023/10/07 15:03:24;;;;;;;14.20;4.43;;;24.70;8.00;;;;;;5112280;28;20451;-72
2023/10/07 15:05:55;;;;;;;11.60;4.60;;;24.70;8.00;;;;;;5112325;28;20468;-72
2023/10/07 15:08:23;;;;;;;11.10;4.33;;;24.70;8.00;;;;;;5112081;28;20887;-72
2023/10/07 15:10:50;;;;;;;7.63;4.03;;;24.50;10.00;;;;;;5111458;28;20483;-72
2023/10/07 15:13:18;;;;;;;12.33;5.20;;;24.20;12.20;;;;;;5111417;28;20473;-72
2023/10/07 15:15:45;;;;;;;10.90;4.10;;;24.10;12.60;;;;;;5111637;28;20978;-72
2023/10/07 15:18:13;;;;;;;12.20;4.90;;;23.90;15.00;;;;;;5111992;28;20454;-72
2023/10/07 15:20:41;;;;;;;15.10;4.17;;;23.70;14.90;;;;;;5111691;28;20744;-72
2023/10/07 15:23:09;;;;;;;10.53;4.17;;;23.50;14.70;;;;;;5111300;28;20448;-72
2023/10/07 15:25:45;;;;;;;9.60;4.30;;;23.40;15.40;;;;;;5111046;28;20460;-72
2023/10/07 15:28:13;;;;;;;12.47;4.90;;;23.50;14.70;;;;;;5111316;28;20499;-72
2023/10/07 15:30:45;;;;;;;9.30;4.40;;;23.30;14.60;;;;;;5111737;28;20501;-71
2023/10/07 15:33:13;;;;;;;12.80;4.37;;;23.30;14.60;;;;;;5111713;28;20456;-71
2023/10/07 15:35:43;;;;;;;12.37;4.30;;;23.20;16.30;;;;;;5112663;28;20444;-72
2023/10/07 15:38:11;;;;;;;8.90;4.50;;;23.00;14.40;;;;;;5116120;28;20445;-71
2023/10/07 15:40:40;;;;;;;11.70;4.70;;;22.90;15.20;;;;;;5115994;28;20987;-72
2023/10/07 15:43:08;;;;;;;11.00;4.97;;;22.80;14.30;;;;;;5115820;28;20480;-72
2023/10/07 15:45:42;;;;;;;9.90;3.60;;;22.80;14.70;;;;;;5116297;28;20444;-72
2023/10/07 15:48:11;;;;;;;14.37;5.03;;;22.80;15.50;;;;;;5116417;28;20472;-72
2023/10/07 15:50:38;;;;;;;9.67;4.70;;;22.80;18.10;;;;;;5115795;28;20504;-72
2023/10/07 15:53:07;;;;;;;11.50;4.60;;;22.80;14.60;;;;;;5116266;28;20444;-72
2023/10/07 15:55:34;;;;;;;15.10;5.80;;;22.70;14.90;;;;;;5116137;28;20494;-72
2023/10/07 15:58:02;;;;;;;9.70;4.00;;;22.60;18.00;;;;;;5116243;28;20523;-72
2023/10/07 16:00:32;;;;;;;11.00;4.50;;;22.60;17.80;;;;;;5116136;28;20886;-71
2023/10/07 16:02:59;;;;;;;13.20;4.57;;;22.40;19.10;;;;;;5112656;28;20444;-72
2023/10/07 16:05:29;;;;;;;12.67;4.57;;;22.30;21.30;;;;;;5112823;28;20445;-71
2023/10/07 16:07:58;;;;;;;13.87;4.43;;;22.10;20.80;;;;;;5115369;28;20567;-72
2023/10/07 16:10:25;;;;;;;10.20;4.23;;;22.00;19.70;;;;;;5114396;28;20484;-72
2023/10/07 16:12:52;;;;;;;14.57;4.78;;;21.80;21.00;;;;;;5114659;28;20537;-72
2023/10/07 16:15:21;;;;;;;12.63;4.60;;;21.60;20.90;;;;;;5115979;28;20195;-72
2023/10/07 16:17:49;;;;;;;8.87;3.80;;;21.50;20.80;;;;;;5115385;28;20444;-74
2023/10/07 16:20:18;;;;;;;11.70;4.50;;;21.30;20.70;;;;;;5114950;28;20456;-75
2023/10/07 16:22:46;;;;;;;10.10;3.87;;;21.30;20.70;;;;;;5114774;28;20444;-72
2023/10/07 16:25:14;;;;;;;11.43;4.90;;;21.10;20.50;;;;;;5114307;28;20494;-72
2023/10/07 16:27:41;;;;;;;11.95;5.10;;;21.00;21.40;;;;;;5113984;28;20541;-72
2023/10/07 16:30:10;;;;;;;11.13;4.47;;;20.90;24.10;;;;;;5115301;28;20206;-72
2023/10/07 16:32:39;;;;;;;10.20;5.03;;;20.80;23.90;;;;;;5115354;28;20441;-72
2023/10/07 16:35:09;;;;;;;11.50;4.50;;;20.70;24.30;;;;;;5116145;28;20932;-71
2023/10/07 16:37:37;;;;;;;10.70;4.03;;;20.70;27.40;;;;;;5115614;28;20451;-71
2023/10/07 16:40:07;;;;;;;10.73;5.13;;;20.50;27.40;;;;;;5112517;28;20445;-71
2023/10/07 16:42:34;;;;;;;10.37;3.80;;;20.50;27.20;;;;;;5110247;28;20449;-71
2023/10/07 16:45:02;;;;;;;13.90;4.33;;;20.40;27.30;;;;;;5113862;28;20457;-72
2023/10/07 16:47:29;;;;;;;12.67;4.30;;;20.40;27.30;;;;;;5113395;28;20552;-71
2023/10/07 16:49:58;;;;;;;11.17;3.80;;;20.30;27.20;;;;;;5114456;28;20455;-72
2023/10/07 16:52:27;;;;;;;10.43;3.80;;;20.30;27.20;;;;;;5114067;28;20449;-72
2023/10/07 16:54:54;;;;;;;9.10;3.73;;;20.10;27.10;;;;;;5114736;28;20506;-72
2023/10/07 16:57:21;;;;;;;21.03;7.63;;;20.00;27.00;;;;;;5113792;28;20449;-72
2023/10/07 16:59:48;;;;;;;9.80;3.50;;;20.00;27.10;;;;;;5114687;28;20453;-72
2023/10/07 17:02:15;;;;;;;11.47;4.03;;;19.90;28.50;;;;;;5114077;28;20444;-71
2023/10/07 17:04:44;;;;;;;9.20;4.00;;;19.90;28.90;;;;;;5113492;28;20476;-72
2023/10/07 17:07:12;;;;;;;9.83;4.60;;;19.90;29.20;;;;;;5113910;28;20504;-71
2023/10/07 17:09:39;;;;;;;10.17;3.80;;;19.90;28.30;;;;;;5113467;28;20973;-72
2023/10/07 17:12:09;;;;;;;12.53;4.10;;;19.90;29.80;;;;;;5113759;28;20814;-72
2023/10/07 17:14:36;;;;;;;9.97;3.33;;;19.90;30.90;;;;;;5113488;28;20449;-71
2023/10/07 17:17:03;;;;;;;14.37;4.57;;;19.90;30.70;;;;;;5113299;28;20484;-71
2023/10/07 17:19:32;;;;;;;9.70;3.83;;;20.00;30.30;;;;;;5114039;28;20440;-71
2023/10/07 17:21:59;;;;;;;8.30;3.70;;;20.00;30.00;;;;;;5114158;28;20488;-71
2023/10/07 17:24:27;;;;;;;10.83;4.60;;;19.90;32.30;;;;;;5113944;28;20490;-71
2023/10/07 17:26:54;;;;;;;8.67;3.77;;;19.80;35.10;;;;;;5113731;28;20563;-71
2023/10/07 17:29:21;;;;;;;9.40;4.13;;;19.80;35.10;;;;;;5113611;28;20453;-72
2023/10/07 17:31:49;;;;;;;8.70;4.10;;;19.70;35.10;;;;;;5113333;28;20527;-71
2023/10/07 17:34:16;;;;;;;11.63;5.40;;;19.70;35.00;;;;;;5114007;28;20510;-71
2023/10/07 17:36:43;;;;;;;14.97;5.47;;;19.60;34.90;;;;;;5113894;28;20456;-71
2023/10/07 17:39:11;;;;;;;13.90;4.60;;;19.70;35.00;;;;;;5112349;28;20879;-71
2023/10/07 17:41:39;;;;;;;8.00;3.40;;;19.80;35.10;;;;;;5113348;28;20667;-72
2023/10/07 17:44:08;;;;;;;11.20;3.93;;;19.80;35.10;;;;;;5113484;28;20467;-71
2023/10/07 17:46:35;;;;;;;15.83;4.70;;;19.70;35.10;;;;;;5112524;28;20455;-71
2023/10/07 17:49:02;;;;;;;7.53;3.23;;;19.70;35.00;;;;;;5113788;28;20529;-71
2023/10/07 17:51:29;;;;;;;9.37;4.00;;;19.60;34.90;;;;;;5112955;28;20856;-71
2023/10/07 17:53:56;;;;;;;8.73;3.77;;;19.60;34.90;;;;;;5113524;28;20459;-71
2023/10/07 17:56:23;;;;;;;9.50;3.50;;;19.60;34.90;;;;;;5113936;28;20452;-71
2023/10/07 17:58:52;;;;;;;8.43;3.63;;;19.60;35.00;;;;;;5112987;28;20441;-71
2023/10/07 18:01:19;;;;;;;10.30;4.50;;;19.50;34.80;;;;;;5113345;28;20488;-71
2023/10/07 18:03:46;;;;;;;10.90;4.13;;;19.40;34.80;;;;;;5113162;28;20940;-71
2023/10/07 18:06:13;;;;;;;10.40;4.50;;;19.40;34.80;;;;;;5113801;28;20440;-71
2023/10/07 18:08:42;;;;;;;9.97;4.00;;;19.40;34.90;;;;;;5113272;28;20575;-71
2023/10/07 18:11:09;;;;;;;10.40;3.87;;;19.20;39.00;;;;;;5112757;28;20480;-71
2023/10/07 18:13:36;;;;;;;13.10;3.90;;;19.20;39.30;;;;;;5113273;28;20495;-71
2023/10/07 18:16:05;;;;;;;8.00;3.53;;;19.20;40.30;;;;;;5113469;28;20455;-71
2023/10/07 18:18:32;;;;;;;10.30;4.13;;;19.20;40.10;;;;;;5113163;28;20501;-72
2023/10/07 18:20:59;;;;;;;13.00;4.23;;;19.30;39.20;;;;;;5113014;28;20544;-71
2023/10/07 18:23:26;;;;;;;14.33;4.60;;;19.40;39.30;;;;;;5113368;28;20540;-71
2023/10/07 18:25:53;;;;;;;13.73;4.50;;;19.40;38.20;;;;;;5112925;28;20495;-71
2023/10/07 18:28:21;;;;;;;10.10;4.27;;;19.50;38.70;;;;;;5113260;28;20546;-71
2023/10/07 18:30:48;;;;;;;9.90;3.67;;;19.50;39.40;;;;;;5113036;28;20448;-72
2023/10/07 18:33:16;;;;;;;11.70;4.23;;;19.40;39.80;;;;;;5109444;28;20856;-71
2023/10/07 18:35:43;;;;;;;10.57;4.67;;;19.40;40.80;;;;;;5113132;28;20539;-71
2023/10/07 18:38:10;;;;;;;8.50;4.07;;;19.40;41.10;;;;;;5112919;28;20528;-71
2023/10/07 18:40:37;;;;;;;9.00;4.67;;;19.40;41.60;;;;;;5112581;28;20475;-70
2023/10/07 18:43:04;;;;;;;8.70;4.00;;;19.30;41.40;;;;;;5112521;28;20448;-71
2023/10/07 18:45:32;;;;;;;11.30;4.63;;;19.30;43.70;;;;;;5112857;28;20445;-71
2023/10/07 18:47:59;;;;;;;10.00;3.90;;;19.20;43.60;;;;;;5112948;28;20657;-71
2023/10/07 18:50:27;;;;;;;10.70;3.47;;;19.20;43.60;;;;;;5112698;28;20578;-71
2023/10/07 18:52:54;;;;;;;7.93;3.43;;;19.20;43.60;;;;;;5112931;28;20448;-72
2023/10/07 18:55:22;;;;;;;7.70;3.70;;;19.20;43.70;;;;;;5112877;28;20476;-71
2023/10/07 18:57:49;;;;;;;8.70;4.07;;;19.20;43.70;;;;;;5113094;28;20444;-71
2023/10/07 19:00:17;;;;;;;10.73;4.83;;;19.30;43.70;;;;;;5112956;28;20501;-71
2023/10/07 19:02:46;;;;;;;9.63;4.77;;;19.30;43.70;;;;;;5111802;28;20448;-71
2023/10/07 19:05:15;;;;;;;13.23;4.30;;;19.20;43.70;;;;;;5112575;28;20452;-72
2023/10/07 19:07:44;;;;;;;8.47;4.57;;;19.10;43.50;;;;;;5112653;28;20499;-71
2023/10/07 19:10:12;;;;;;;9.23;4.63;;;19.10;43.60;;;;;;5112087;28;20444;-71
2023/10/07 19:12:40;;;;;;;11.03;4.30;;;19.00;43.50;;;;;;5112178;28;20810;-71
2023/10/07 19:15:08;;;;;;;10.63;4.70;;;18.90;46.20;;;;;;5112505;28;20444;-71
2023/10/07 19:17:35;;;;;;;8.00;4.00;;;18.90;47.90;;;;;;5112600;28;21028;-73
2023/10/07 19:20:02;;;;;;;9.40;4.47;;;18.90;49.30;;;;;;5112831;28;20483;-72
2023/10/07 19:22:29;;;;;;;9.93;4.90;;;18.90;52.00;;;;;;5112330;28;20453;-73
2023/10/07 19:24:58;;;;;;;7.60;3.77;;;18.80;52.90;;;;;;5112264;28;21018;-73
2023/10/07 19:27:26;;;;;;;8.40;3.93;;;18.80;52.10;;;;;;5112483;28;20548;-73
2023/10/07 19:29:52;;;;;;;9.73;3.90;;;18.90;52.20;;;;;;5112321;28;20487;-72
2023/10/07 19:32:19;;;;;;;11.20;3.87;;;18.90;52.20;;;;;;5112169;28;20453;-73
2023/10/07 19:34:46;;;;;;;11.20;3.93;;;18.90;52.20;;;;;;5112616;28;20534;-72
2023/10/07 19:37:14;;;;;;;10.83;4.97;;;18.80;52.10;;;;;;5112232;28;20536;-72
2023/10/07 19:39:41;;;;;;;10.93;3.70;;;18.70;52.00;;;;;;5111699;28;20445;-73
2023/10/07 19:42:10;;;;;;;13.20;4.33;;;18.70;52.00;;;;;;5112235;28;20445;-72
2023/10/07 19:44:37;;;;;;;7.53;4.10;;;18.80;52.10;;;;;;5111852;28;20873;-72
2023/10/07 19:47:04;;;;;;;10.93;3.90;;;18.80;52.10;;;;;;5112580;28;20876;-72
2023/10/07 19:49:31;;;;;;;8.00;4.00;;;18.80;52.10;;;;;;5112369;28;20477;-73
2023/10/07 19:52:00;;;;;;;8.63;4.40;;;18.70;52.10;;;;;;5112133;28;20448;-73
2023/10/07 19:54:26;;;;;;;7.90;4.07;;;18.80;52.10;;;;;;5112303;28;20449;-72
2023/10/07 19:56:53;;;;;;;10.50;4.37;;;18.90;52.20;;;;;;5112178;28;20487;-72
2023/10/07 19:59:22;;;;;;;7.70;3.50;;;18.90;52.20;;;;;;5112238;28;20444;-73
2023/10/07 20:01:49;;;;;;;9.77;4.03;;;18.90;52.20;;;;;;5111733;28;20539;-73
2023/10/07 20:04:16;;;;;;;10.60;4.47;;;19.00;52.40;;;;;;5112041;28;20444;-72
2023/10/07 20:06:43;;;;;;;11.37;4.30;;;19.00;52.30;;;;;;5112180;28;21023;-72
2023/10/07 20:09:11;;;;;;;9.63;4.57;;;18.90;52.20;;;;;;5111868;28;20539;-72
2023/10/07 20:11:38;;;;;;;12.10;5.70;;;19.00;52.30;;;;;;5110852;28;20842;-73
2023/10/07 20:14:05;;;;;;;9.50;4.10;;;19.00;52.30;;;;;;5113032;28;20535;-73
2023/10/07 20:16:33;;;;;;;8.53;4.27;;;19.00;52.30;;;;;;5111327;28;20444;-73
2023/10/07 20:19:01;;;;;;;8.27;4.07;;;19.10;52.30;;;;;;5111854;28;20532;-73
2023/10/07 20:21:28;;;;;;;9.30;4.50;;;19.10;52.30;;;;;;5112004;28;20449;-73